createdAt,value
2016-10-29T10:03:27.481Z,22.7
2016-10-29T10:04:41.195Z,23.05
2016-10-29T10:05:54.893Z,21.67
2016-10-29T10:07:08.608Z,16.49
2016-10-29T10:08:50.605Z,14.99
2016-10-29T10:10:04.313Z,15.64
2016-10-29T10:11:14.168Z,15.42
2016-10-29T10:12:26.626Z,15.42
2016-10-29T10:13:39.059Z,15.68
2016-10-29T10:14:50.195Z,15.36
2016-10-29T10:16:03.914Z,15.28
2016-10-29T10:17:17.668Z,14.92
2016-10-29T10:18:28.790Z,15.31
2016-10-29T10:19:42.503Z,15.09
2016-10-29T10:20:56.201Z,14.55
2016-10-29T10:22:09.935Z,15.43
2016-10-29T10:23:23.661Z,15.19
2016-10-29T10:24:37.354Z,15.46
2016-10-29T10:25:51.069Z,15.35
2016-10-29T10:27:04.785Z,15.55
2016-10-29T10:28:18.501Z,15.9
2016-10-29T10:29:30.899Z,15.43
2016-10-29T10:30:43.346Z,15.62
2016-10-29T10:31:54.453Z,15.57
2016-10-29T10:33:08.173Z,15.39
2016-10-29T10:34:21.876Z,15.52
2016-10-29T10:35:34.410Z,15.77
2016-10-29T10:36:48.118Z,15.83
2016-10-29T10:38:00.529Z,15.94
2016-10-29T10:39:12.934Z,16.08
2016-10-29T10:40:26.645Z,16.02
2016-10-29T10:41:40.357Z,16.41
2016-10-29T10:42:52.800Z,16.53
2016-10-29T10:44:06.554Z,16.51
2016-10-29T10:45:18.958Z,16.29
2016-10-29T10:46:31.373Z,16.33
2016-10-29T10:47:45.067Z,16.31
2016-10-29T10:48:58.766Z,16.41
2016-10-29T10:50:12.465Z,16.2
2016-10-29T10:51:26.183Z,15.75
2016-10-29T10:52:39.922Z,15.88
2016-10-29T10:53:53.659Z,16.02
2016-10-29T10:55:07.384Z,16.32
2016-10-29T10:56:19.814Z,16.47
2016-10-29T10:57:32.402Z,16.47
2016-10-29T10:58:46.151Z,17.22
2016-10-29T10:59:59.862Z,17.7
2016-10-29T11:01:12.338Z,17.52
2016-10-29T11:02:24.773Z,16.72
2016-10-29T11:03:36.154Z,17.01
2016-10-29T11:04:50.016Z,17.86
2016-10-29T11:06:03.713Z,18.41
2016-10-29T11:07:17.432Z,17.38
2016-10-29T11:08:29.911Z,17.19
2016-10-29T11:09:42.331Z,17.14
2016-10-29T11:10:56.085Z,17.56
2016-10-29T11:12:09.811Z,16.84
2016-10-29T11:13:22.243Z,16.49
2016-10-29T11:14:36.113Z,15.76
2016-10-29T11:15:49.860Z,16.31
2016-10-29T11:17:03.585Z,18.18
2016-10-29T11:18:17.292Z,17.57
2016-10-29T11:19:31.020Z,18.16
2016-10-29T11:20:44.756Z,19.56
2016-10-29T11:21:57.217Z,18.88
2016-10-29T11:23:09.634Z,17.76
2016-10-29T11:24:23.553Z,18.13
2016-10-29T11:25:33.400Z,18.2
2016-10-29T11:26:45.840Z,18.78
2016-10-29T11:27:59.697Z,18.68
2016-10-29T11:29:12.103Z,17.8
2016-10-29T11:30:25.801Z,17.9
2016-10-29T11:31:39.538Z,18.55
2016-10-29T11:32:53.243Z,18.92
2016-10-29T11:34:07.232Z,19.52
2016-10-29T11:35:20.970Z,19.51
2016-10-29T11:36:34.958Z,20.07
2016-10-29T11:39:10.024Z,21.36
2016-10-29T11:40:33.134Z,20.7
2016-10-29T11:41:48.308Z,18.86
2016-10-29T11:43:03.532Z,18.73
2016-10-29T11:44:17.581Z,18.41
2016-10-29T11:45:31.510Z,18.03
2016-10-29T11:46:46.930Z,18.33
2016-10-29T11:48:02.087Z,17.85
2016-10-29T11:49:14.718Z,17.39
2016-10-29T11:50:29.920Z,17.44
2016-10-29T11:51:43.830Z,18.01
2016-10-29T11:52:59.006Z,18.56
2016-10-29T11:54:14.466Z,19.4
2016-10-29T11:55:26.939Z,19.02
2016-10-29T11:56:39.348Z,17.74
2016-10-29T11:57:53.090Z,20.29
2016-10-29T11:59:07.143Z,21.29
2016-10-29T12:00:18.354Z,20.22
2016-10-29T12:01:32.078Z,20.28
2016-10-29T12:02:45.779Z,20.18
2016-10-29T12:03:58.182Z,19.04
2016-10-29T12:05:10.612Z,19.15
2016-10-29T12:06:23.131Z,19.19
2016-10-29T12:07:35.554Z,18.35
2016-10-29T12:08:49.252Z,17.71
2016-10-29T12:10:02.990Z,16.91
2016-10-29T12:11:16.772Z,19.71
2016-10-29T12:12:30.771Z,22.11
2016-10-29T12:13:44.498Z,23.23
2016-10-29T12:14:58.230Z,24.98
2016-10-29T12:16:11.921Z,25.84
2016-10-29T12:17:25.683Z,26.84
2016-10-29T12:18:39.378Z,25.16
2016-10-29T12:19:51.831Z,25.53
2016-10-29T12:21:05.599Z,25.66
2016-10-29T12:22:19.321Z,23.84
2016-10-29T12:23:31.766Z,24.95
2016-10-29T12:24:45.499Z,25.63
2016-10-29T12:25:59.254Z,25.7
2016-10-29T12:27:13.126Z,24.58
2016-10-29T12:28:26.850Z,24.18
2016-10-29T12:29:40.557Z,24.39
2016-10-29T12:30:54.291Z,24.88
2016-10-29T12:32:05.450Z,25.84
2016-10-29T12:33:19.179Z,26.02
2016-10-29T12:34:31.596Z,25.31
2016-10-29T12:35:45.401Z,25.75
2016-10-29T12:36:57.845Z,25.5
2016-10-29T12:38:11.550Z,25.87
2016-10-29T12:39:25.284Z,25.36
2016-10-29T12:40:39.017Z,24.51
2016-10-29T12:41:50.208Z,26.65
2016-10-29T12:43:02.618Z,26.93
2016-10-29T12:44:16.366Z,26.43
2016-10-29T12:45:30.069Z,26.1
2016-10-29T12:46:42.557Z,26.7
2016-10-29T12:47:55.006Z,27.63
2016-10-29T12:49:08.725Z,28.62
2016-10-29T12:50:21.161Z,26.89
2016-10-29T12:51:33.681Z,26.1
2016-10-29T12:52:47.393Z,28.04
2016-10-29T12:54:01.092Z,27.52
2016-10-29T12:55:45.904Z,27.25
2016-10-29T12:56:59.603Z,27.11
2016-10-29T12:58:12.029Z,26.05
2016-10-29T12:59:24.477Z,25.46
2016-10-29T13:00:35.609Z,25.14
2016-10-29T13:01:49.375Z,21.33
2016-10-29T13:03:00.531Z,19.82
2016-10-29T13:04:12.988Z,19.88
2016-10-29T13:05:25.473Z,19.22
2016-10-29T13:06:36.600Z,19.59
2016-10-29T13:07:49.050Z,19.12
2016-10-29T13:09:01.457Z,18.65
2016-10-29T13:10:13.914Z,17.94
2016-10-29T13:11:27.622Z,17.42
2016-10-29T13:12:40.038Z,16.86
2016-10-29T13:13:53.738Z,17.42
2016-10-29T13:15:06.159Z,17.08
2016-10-29T13:16:19.970Z,16.76
2016-10-29T13:17:33.676Z,16.69
2016-10-29T13:18:47.420Z,17.14
2016-10-29T13:20:01.148Z,16.6
2016-10-29T13:21:13.563Z,16.64
2016-10-29T13:22:27.284Z,16.66
2016-10-29T13:23:39.741Z,17.06
2016-10-29T13:24:49.592Z,16.91
2016-10-29T13:26:03.294Z,17.04
2016-10-29T13:27:15.746Z,17.39
2016-10-29T13:28:29.459Z,16.57
2016-10-29T13:29:41.881Z,16.28
2016-10-29T13:30:55.619Z,16.02
2016-10-29T13:32:08.032Z,16.29
2016-10-29T13:33:21.721Z,16.5
2016-10-29T13:34:32.865Z,16.35
2016-10-29T13:35:46.741Z,16
2016-10-29T13:37:00.467Z,15.62
2016-10-29T13:38:14.166Z,15.76
2016-10-29T13:39:27.892Z,15.22
2016-10-29T13:40:40.368Z,15.14
2016-10-29T13:41:54.077Z,15.25
2016-10-29T13:43:07.832Z,15.03
2016-10-29T13:44:21.541Z,15.17
2016-10-29T13:45:35.396Z,15.27
2016-10-29T13:46:49.192Z,15.03
2016-10-29T13:48:01.652Z,14.94
2016-10-29T13:49:15.354Z,14.85
2016-10-29T13:50:29.088Z,14.77
